sensor_id;sensor_type;location;lat;lon;timestamp;pressure;altitude;pressure_sealevel;temperature;humidity
62791;BME280;48830;53.426;10.300;2022-12-29T00:01:13;100126.28;;;8.08;100.00
62791;BME280;48830;53.426;10.300;2022-12-29T00:03:39;100097.31;;;8.11;100.00
62791;BME280;48830;53.426;10.300;2022-12-29T00:06:04;100108.38;;;8.08;100.00
62791;BME280;48830;53.426;10.300;2022-12-29T00:08:30;100111.72;;;8.06;100.00
62791;BME280;48830;53.426;10.300;2022-12-29T00:11:07;100117.63;;;8.00;100.00
62791;BME280;48830;53.426;10.300;2022-12-29T00:13:33;100107.47;;;8.05;100.00
62791;BME280;48830;53.426;10.300;2022-12-29T00:16:17;100103.19;;;8.04;100.00
62791;BME280;48830;53.426;10.300;2022-12-29T00:18:43;100106.66;;;8.07;100.00
62791;BME280;48830;53.426;10.300;2022-12-29T00:21:14;100109.31;;;8.13;100.00
62791;BME280;48830;53.426;10.300;2022-12-29T00:23:58;100102.50;;;8.15;100.00
62791;BME280;48830;53.426;10.300;2022-12-29T00:26:42;100107.66;;;8.19;100.00
62791;BME280;48830;53.426;10.300;2022-12-29T00:29:27;100104.34;;;8.26;100.00
62791;BME280;48830;53.426;10.300;2022-12-29T00:32:11;100112.03;;;8.27;100.00
62791;BME280;48830;53.426;10.300;2022-12-29T00:35:03;100097.59;;;8.32;100.00
62791;BME280;48830;53.426;10.300;2022-12-29T00:37:41;100099.41;;;8.38;100.00
62791;BME280;48830;53.426;10.300;2022-12-29T00:40:45;100096.00;;;8.39;100.00
62791;BME280;48830;53.426;10.300;2022-12-29T00:43:29;100101.19;;;8.42;100.00
62791;BME280;48830;53.426;10.300;2022-12-29T00:46:13;100087.53;;;8.45;100.00
62791;BME280;48830;53.426;10.300;2022-12-29T00:48:39;100090.16;;;8.48;100.00
62791;BME280;48830;53.426;10.300;2022-12-29T00:51:23;100084.22;;;8.50;100.00
62791;BME280;48830;53.426;10.300;2022-12-29T00:53:48;100085.09;;;8.55;100.00
62791;BME280;48830;53.426;10.300;2022-12-29T00:56:14;100091.13;;;8.57;100.00
62791;BME280;48830;53.426;10.300;2022-12-29T00:58:39;100086.03;;;8.60;100.00
62791;BME280;48830;53.426;10.300;2022-12-29T01:01:08;100076.63;;;8.61;100.00
62791;BME280;48830;53.426;10.300;2022-12-29T01:03:35;100073.31;;;8.66;100.00
62791;BME280;48830;53.426;10.300;2022-12-29T01:06:03;100079.31;;;8.72;100.00
62791;BME280;48830;53.426;10.300;2022-12-29T01:08:29;100084.53;;;8.78;100.00
62791;BME280;48830;53.426;10.300;2022-12-29T01:11:02;100071.78;;;8.84;100.00
62791;BME280;48830;53.426;10.300;2022-12-29T01:13:28;100069.28;;;8.90;100.00
62791;BME280;48830;53.426;10.300;2022-12-29T01:15:54;100070.19;;;8.97;100.00
62791;BME280;48830;53.426;10.300;2022-12-29T01:18:20;100060.75;;;8.91;100.00
62791;BME280;48830;53.426;10.300;2022-12-29T01:20:46;100040.28;;;8.94;100.00
62791;BME280;48830;53.426;10.300;2022-12-29T01:23:11;100047.97;;;8.94;100.00
62791;BME280;48830;53.426;10.300;2022-12-29T01:25:37;100050.56;;;8.97;100.00
62791;BME280;48830;53.426;10.300;2022-12-29T01:28:02;100035.97;;;8.93;100.00
62791;BME280;48830;53.426;10.300;2022-12-29T01:30:28;100043.66;;;8.90;100.00
62791;BME280;48830;53.426;10.300;2022-12-29T01:32:53;100042.78;;;8.88;100.00
62791;BME280;48830;53.426;10.300;2022-12-29T01:35:19;100035.09;;;8.88;100.00
62791;BME280;48830;53.426;10.300;2022-12-29T01:37:45;100038.53;;;8.90;100.00
62791;BME280;48830;53.426;10.300;2022-12-29T01:40:10;100025.72;;;8.90;100.00
62791;BME280;48830;53.426;10.300;2022-12-29T01:42:36;100026.53;;;8.84;100.00
62791;BME280;48830;53.426;10.300;2022-12-29T01:45:13;100023.16;;;8.91;100.00
62791;BME280;48830;53.426;10.300;2022-12-29T01:50:34;100013.00;;;8.99;100.00
62791;BME280;48830;53.426;10.300;2022-12-29T01:53:11;100009.59;;;9.00;100.00
62791;BME280;48830;53.426;10.300;2022-12-29T01:55:45;100004.47;;;9.00;100.00
62791;BME280;48830;53.426;10.300;2022-12-29T01:58:13;100007.03;;;9.02;100.00
62791;BME280;48830;53.426;10.300;2022-12-29T02:00:40;100011.34;;;9.04;100.00
62791;BME280;48830;53.426;10.300;2022-12-29T02:03:06;100007.91;;;9.05;100.00
62791;BME280;48830;53.426;10.300;2022-12-29T02:05:48;100010.50;;;9.07;100.00
62791;BME280;48830;53.426;10.300;2022-12-29T02:08:16;100010.50;;;9.08;100.00
62791;BME280;48830;53.426;10.300;2022-12-29T02:10:42;100001.09;;;9.07;100.00
62791;BME280;48830;53.426;10.300;2022-12-29T02:13:09;99998.53;;;9.09;100.00
62791;BME280;48830;53.426;10.300;2022-12-29T02:18:37;100010.50;;;9.07;100.00
62791;BME280;48830;53.426;10.300;2022-12-29T02:26:42;99999.44;;;9.12;100.00
62791;BME280;48830;53.426;10.300;2022-12-29T02:40:55;99989.13;;;9.06;100.00
62791;BME280;48830;53.426;10.300;2022-12-29T02:43:47;99982.28;;;9.08;100.00
62791;BME280;48830;53.426;10.300;2022-12-29T02:46:30;99980.63;;;9.12;100.00
62791;BME280;48830;53.426;10.300;2022-12-29T02:49:19;99988.31;;;9.12;100.00
62791;BME280;48830;53.426;10.300;2022-12-29T02:51:59;99968.66;;;9.12;100.00
62791;BME280;48830;53.426;10.300;2022-12-29T02:54:27;99967.00;;;9.17;100.00
62791;BME280;48830;53.426;10.300;2022-12-29T02:57:28;99965.28;;;9.19;100.00
62791;BME280;48830;53.426;10.300;2022-12-29T03:00:07;99967.00;;;9.17;100.00
62791;BME280;48830;53.426;10.300;2022-12-29T03:02:44;99959.31;;;9.19;100.00
62791;BME280;48830;53.426;10.300;2022-12-29T03:08:30;99961.91;;;9.24;100.00
62791;BME280;48830;53.426;10.300;2022-12-29T03:16:47;99934.56;;;9.23;100.00
62791;BME280;48830;53.426;10.300;2022-12-29T03:19:21;99942.25;;;9.23;100.00
62791;BME280;48830;53.426;10.300;2022-12-29T03:21:53;99939.69;;;9.23;100.00
62791;BME280;48830;53.426;10.300;2022-12-29T03:24:44;99934.59;;;9.26;100.00
62791;BME280;48830;53.426;10.300;2022-12-29T03:27:15;99932.06;;;9.33;100.00
62791;BME280;48830;53.426;10.300;2022-12-29T03:29:50;99920.09;;;9.34;100.00
62791;BME280;48830;53.426;10.300;2022-12-29T03:32:22;99915.81;;;9.36;100.00
62791;BME280;48830;53.426;10.300;2022-12-29T03:34:49;99909.84;;;9.35;100.00
62791;BME280;48830;53.426;10.300;2022-12-29T03:37:18;99915.00;;;9.37;100.00
62791;BME280;48830;53.426;10.300;2022-12-29T03:39:46;99921.00;;;9.42;100.00
62791;BME280;48830;53.426;10.300;2022-12-29T03:42:20;99902.19;;;9.37;100.00
62791;BME280;48830;53.426;10.300;2022-12-29T03:44:47;99908.16;;;9.39;100.00
62791;BME280;48830;53.426;10.300;2022-12-29T03:47:14;99909.88;;;9.40;100.00
62791;BME280;48830;53.426;10.300;2022-12-29T03:49:41;99909.03;;;9.44;100.00
62791;BME280;48830;53.426;10.300;2022-12-29T03:52:07;99909.06;;;9.47;100.00
62791;BME280;48830;53.426;10.300;2022-12-29T03:54:38;99902.22;;;9.46;100.00
62791;BME280;48830;53.426;10.300;2022-12-29T03:57:04;99899.66;;;9.49;100.00
62791;BME280;48830;53.426;10.300;2022-12-29T03:59:42;99897.97;;;9.50;100.00
62791;BME280;48830;53.426;10.300;2022-12-29T04:02:07;99903.97;;;9.53;100.00
62791;BME280;48830;53.426;10.300;2022-12-29T04:04:33;99900.56;;;9.54;100.00
62791;BME280;48830;53.426;10.300;2022-12-29T04:06:58;99890.28;;;9.54;100.00
62791;BME280;48830;53.426;10.300;2022-12-29T04:09:24;99898.00;;;9.56;100.00
62791;BME280;48830;53.426;10.300;2022-12-29T04:11:51;99889.47;;;9.58;100.00
62791;BME280;48830;53.426;10.300;2022-12-29T04:14:17;99876.63;;;9.61;100.00
62791;BME280;48830;53.426;10.300;2022-12-29T04:16:43;99876.63;;;9.61;100.00
62791;BME280;48830;53.426;10.300;2022-12-29T04:19:08;99881.78;;;9.64;100.00
62791;BME280;48830;53.426;10.300;2022-12-29T04:21:35;99881.78;;;9.66;100.00
62791;BME280;48830;53.426;10.300;2022-12-29T04:24:01;99881.81;;;9.69;100.00
62791;BME280;48830;53.426;10.300;2022-12-29T04:26:26;99874.97;;;9.72;100.00
62791;BME280;48830;53.426;10.300;2022-12-29T04:28:58;99875.00;;;9.76;100.00
62791;BME280;48830;53.426;10.300;2022-12-29T04:31:59;99870.72;;;9.76;100.00
62791;BME280;48830;53.426;10.300;2022-12-29T04:34:26;99869.84;;;9.77;100.00
62791;BME280;48830;53.426;10.300;2022-12-29T04:36:52;99873.28;;;9.78;100.00
62791;BME280;48830;53.426;10.300;2022-12-29T04:39:18;99870.72;;;9.78;100.00
62791;BME280;48830;53.426;10.300;2022-12-29T04:41:43;99873.31;;;9.81;100.00
62791;BME280;48830;53.426;10.300;2022-12-29T04:44:14;99869.84;;;9.79;100.00
62791;BME280;48830;53.426;10.300;2022-12-29T04:46:46;99858.72;;;9.78;100.00
62791;BME280;48830;53.426;10.300;2022-12-29T04:49:40;99859.63;;;9.80;100.00
62791;BME280;48830;53.426;10.300;2022-12-29T04:52:15;99851.88;;;9.79;100.00
62791;BME280;48830;53.426;10.300;2022-12-29T04:54:43;99858.72;;;9.78;100.00
62791;BME280;48830;53.426;10.300;2022-12-29T04:57:15;99858.75;;;9.80;100.00
62791;BME280;48830;53.426;10.300;2022-12-29T04:59:41;99851.88;;;9.77;100.00
62791;BME280;48830;53.426;10.300;2022-12-29T05:02:07;99846.75;;;9.76;100.00
62791;BME280;48830;53.426;10.300;2022-12-29T05:04:34;99830.50;;;9.77;100.00
62791;BME280;48830;53.426;10.300;2022-12-29T05:06:59;99836.50;;;9.74;100.00
62791;BME280;48830;53.426;10.300;2022-12-29T05:09:26;99840.75;;;9.72;100.00
62791;BME280;48830;53.426;10.300;2022-12-29T05:11:52;99842.44;;;9.68;100.00
62791;BME280;48830;53.426;10.300;2022-12-29T05:14:18;99848.47;;;9.69;100.00
62791;BME280;48830;53.426;10.300;2022-12-29T05:16:43;99842.44;;;9.68;100.00
62791;BME280;48830;53.426;10.300;2022-12-29T05:19:08;99841.59;;;9.68;100.00
62791;BME280;48830;53.426;10.300;2022-12-29T05:21:34;99838.16;;;9.67;100.00
62791;BME280;48830;53.426;10.300;2022-12-29T05:23:59;99843.31;;;9.69;100.00
62791;BME280;48830;53.426;10.300;2022-12-29T05:26:25;99839.88;;;9.68;100.00
62791;BME280;48830;53.426;10.300;2022-12-29T05:29:10;99847.56;;;9.68;100.00
62791;BME280;48830;53.426;10.300;2022-12-29T05:31:36;99838.19;;;9.69;100.00
62791;BME280;48830;53.426;10.300;2022-12-29T05:34:03;99855.31;;;9.70;100.00
62791;BME280;48830;53.426;10.300;2022-12-29T05:36:29;99833.03;;;9.66;100.00
62791;BME280;48830;53.426;10.300;2022-12-29T05:38:58;99837.31;;;9.68;100.00
62791;BME280;48830;53.426;10.300;2022-12-29T05:41:23;99839.03;;;9.69;100.00
62791;BME280;48830;53.426;10.300;2022-12-29T05:44:07;99832.19;;;9.68;100.00
62791;BME280;48830;53.426;10.300;2022-12-29T05:46:59;99821.91;;;9.68;100.00
62791;BME280;48830;53.426;10.300;2022-12-29T05:49:34;99821.06;;;9.65;100.00
62791;BME280;48830;53.426;10.300;2022-12-29T05:52:20;99834.75;;;9.68;100.00
62791;BME280;48830;53.426;10.300;2022-12-29T05:54:45;99831.31;;;9.68;100.00
62791;BME280;48830;53.426;10.300;2022-12-29T05:57:14;99839.88;;;9.67;100.00
62791;BME280;48830;53.426;10.300;2022-12-29T05:59:43;99839.91;;;9.70;100.00
62791;BME280;48830;53.426;10.300;2022-12-29T06:02:09;99854.44;;;9.72;100.00
62791;BME280;48830;53.426;10.300;2022-12-29T06:04:35;99849.31;;;9.69;100.00
62791;BME280;48830;53.426;10.300;2022-12-29T06:07:00;99848.47;;;9.75;100.00
62791;BME280;48830;53.426;10.300;2022-12-29T06:09:38;99851.03;;;9.75;100.00
62791;BME280;48830;53.426;10.300;2022-12-29T06:12:05;99841.59;;;9.72;100.00
62791;BME280;48830;53.426;10.300;2022-12-29T06:14:31;99843.34;;;9.77;100.00
62791;BME280;48830;53.426;10.300;2022-12-29T06:16:57;99842.47;;;9.78;100.00
62791;BME280;48830;53.426;10.300;2022-12-29T06:19:23;99843.34;;;9.77;100.00
62791;BME280;48830;53.426;10.300;2022-12-29T06:21:49;99850.19;;;9.78;100.00
62791;BME280;48830;53.426;10.300;2022-12-29T06:24:14;99842.47;;;9.78;100.00
62791;BME280;48830;53.426;10.300;2022-12-29T06:26:40;99847.63;;;9.81;100.00
62791;BME280;48830;53.426;10.300;2022-12-29T06:29:07;99858.78;;;9.86;100.00
62791;BME280;48830;53.426;10.300;2022-12-29T06:31:33;99857.09;;;9.95;100.00
62791;BME280;48830;53.426;10.300;2022-12-29T06:33:58;99848.56;;;10.01;100.00
62791;BME280;48830;53.426;10.300;2022-12-29T06:36:25;99847.69;;;10.02;100.00
62791;BME280;48830;53.426;10.300;2022-12-29T06:38:51;99847.69;;;10.02;100.00
62791;BME280;48830;53.426;10.300;2022-12-29T06:41:21;99848.53;;;9.98;100.00
62791;BME280;48830;53.426;10.300;2022-12-29T06:44:05;99844.25;;;9.98;100.00
62791;BME280;48830;53.426;10.300;2022-12-29T06:47:00;99838.25;;;9.99;100.00
62791;BME280;48830;53.426;10.300;2022-12-29T06:49:25;99830.59;;;10.01;100.00
62791;BME280;48830;53.426;10.300;2022-12-29T06:51:51;99835.72;;;10.01;100.00
62791;BME280;48830;53.426;10.300;2022-12-29T06:54:16;99827.13;;;9.99;100.00
62791;BME280;48830;53.426;10.300;2022-12-29T06:56:42;99839.13;;;9.97;100.00
62791;BME280;48830;53.426;10.300;2022-12-29T06:59:09;99828.00;;;9.99;100.00
62791;BME280;48830;53.426;10.300;2022-12-29T07:01:34;99831.44;;;9.97;100.00
62791;BME280;48830;53.426;10.300;2022-12-29T07:04:02;99828.84;;;9.91;100.00
62791;BME280;48830;53.426;10.300;2022-12-29T07:06:27;99837.41;;;9.91;100.00
62791;BME280;48830;53.426;10.300;2022-12-29T07:08:53;99832.25;;;9.93;100.00
62791;BME280;48830;53.426;10.300;2022-12-29T07:11:20;99830.56;;;9.92;100.00
62791;BME280;48830;53.426;10.300;2022-12-29T07:13:46;99823.72;;;9.91;100.00
62791;BME280;48830;53.426;10.300;2022-12-29T07:16:12;99818.56;;;9.91;100.00
62791;BME280;48830;53.426;10.300;2022-12-29T07:18:37;99827.13;;;9.93;100.00
62791;BME280;48830;53.426;10.300;2022-12-29T07:21:03;99822.84;;;9.87;100.00
62791;BME280;48830;53.426;10.300;2022-12-29T07:23:29;99816.00;;;9.89;100.00
62791;BME280;48830;53.426;10.300;2022-12-29T07:26:05;99815.13;;;9.89;100.00
62791;BME280;48830;53.426;10.300;2022-12-29T07:28:31;99820.28;;;9.86;100.00
62791;BME280;48830;53.426;10.300;2022-12-29T07:30:58;99814.31;;;9.99;100.00
62791;BME280;48830;53.426;10.300;2022-12-29T07:33:23;99823.72;;;10.06;100.00
62791;BME280;48830;53.426;10.300;2022-12-29T07:35:49;99844.28;;;10.15;100.00
62791;BME280;48830;53.426;10.300;2022-12-29T07:38:14;99825.44;;;10.09;100.00
62791;BME280;48830;53.426;10.300;2022-12-29T07:40:40;99834.00;;;10.06;100.00
62791;BME280;48830;53.426;10.300;2022-12-29T07:43:05;99852.81;;;9.99;100.00
62791;BME280;48830;53.426;10.300;2022-12-29T07:45:38;99852.81;;;9.93;100.00
62791;BME280;48830;53.426;10.300;2022-12-29T07:48:09;99853.66;;;9.90;100.00
62791;BME280;48830;53.426;10.300;2022-12-29T07:50:35;99857.06;;;9.94;100.00
62791;BME280;48830;53.426;10.300;2022-12-29T07:53:01;99846.81;;;9.94;100.00
62791;BME280;48830;53.426;10.300;2022-12-29T07:55:26;99839.97;;;9.94;100.00
62791;BME280;48830;53.426;10.300;2022-12-29T07:57:55;99856.22;;;9.95;100.00
62791;BME280;48830;53.426;10.300;2022-12-29T08:00:21;99865.63;;;9.91;100.00
62791;BME280;48830;53.426;10.300;2022-12-29T08:02:47;99859.63;;;9.94;100.00
62791;BME280;48830;53.426;10.300;2022-12-29T08:05:13;99875.91;;;9.91;100.00
62791;BME280;48830;53.426;10.300;2022-12-29T08:07:38;99870.78;;;9.91;100.00
62791;BME280;48830;53.426;10.300;2022-12-29T08:10:04;99866.50;;;9.98;100.00
62791;BME280;48830;53.426;10.300;2022-12-29T08:12:30;99866.50;;;9.96;100.00
62791;BME280;48830;53.426;10.300;2022-12-29T08:14:55;99862.22;;;10.00;100.00
62791;BME280;48830;53.426;10.300;2022-12-29T08:17:21;99873.34;;;9.99;100.00
62791;BME280;48830;53.426;10.300;2022-12-29T08:19:46;99876.78;;;10.04;100.00
62791;BME280;48830;53.426;10.300;2022-12-29T08:22:13;99869.94;;;10.06;100.00
62791;BME280;48830;53.426;10.300;2022-12-29T08:24:39;99875.09;;;10.03;100.00
62791;BME280;48830;53.426;10.300;2022-12-29T08:27:05;99882.78;;;10.05;100.00
62791;BME280;48830;53.426;10.300;2022-12-29T08:29:30;99889.63;;;10.03;100.00
62791;BME280;48830;53.426;10.300;2022-12-29T08:31:56;99893.03;;;10.06;100.00
62791;BME280;48830;53.426;10.300;2022-12-29T08:34:21;99893.06;;;10.03;100.00
62791;BME280;48830;53.426;10.300;2022-12-29T08:36:46;99899.91;;;10.03;100.00
62791;BME280;48830;53.426;10.300;2022-12-29T08:39:12;99893.88;;;9.99;100.00
62791;BME280;48830;53.426;10.300;2022-12-29T08:41:37;99891.31;;;9.93;100.00
62791;BME280;48830;53.426;10.300;2022-12-29T08:44:03;99902.41;;;9.95;100.00
62791;BME280;48830;53.426;10.300;2022-12-29T08:46:29;99897.31;;;9.98;100.00
62791;BME280;48830;53.426;10.300;2022-12-29T08:48:54;99904.19;;;10.10;100.00
62791;BME280;48830;53.426;10.300;2022-12-29T08:51:20;99900.81;;;10.18;100.00
62791;BME280;48830;53.426;10.300;2022-12-29T08:53:45;99906.00;;;10.24;100.00
62791;BME280;48830;53.426;10.300;2022-12-29T08:56:11;99903.34;;;10.15;100.00
62791;BME280;48830;53.426;10.300;2022-12-29T08:58:47;99910.25;;;10.22;100.00
62791;BME280;48830;53.426;10.300;2022-12-29T09:01:13;99921.41;;;10.29;100.00
62791;BME280;48830;53.426;10.300;2022-12-29T09:03:38;99925.69;;;10.30;100.00
62791;BME280;48830;53.426;10.300;2022-12-29T09:06:04;99929.06;;;10.20;100.00
62791;BME280;48830;53.426;10.300;2022-12-29T09:08:29;99935.03;;;10.20;100.00
62791;BME280;48830;53.426;10.300;2022-12-29T09:10:55;99925.63;;;10.21;100.00
62791;BME280;48830;53.426;10.300;2022-12-29T09:13:20;99923.94;;;10.23;100.00
62791;BME280;48830;53.426;10.300;2022-12-29T09:15:46;99917.06;;;10.20;100.00
62791;BME280;48830;53.426;10.300;2022-12-29T09:18:12;99924.00;;;10.37;100.00
62791;BME280;48830;53.426;10.300;2022-12-29T09:20:37;99930.88;;;10.39;100.00
62791;BME280;48830;53.426;10.300;2022-12-29T09:23:03;99920.56;;;10.33;100.00
62791;BME280;48830;53.426;10.300;2022-12-29T09:25:28;99927.41;;;10.31;100.00
62791;BME280;48830;53.426;10.300;2022-12-29T09:27:54;99933.41;;;10.35;100.00
62791;BME280;48830;53.426;10.300;2022-12-29T09:30:22;99938.56;;;10.35;100.00
62791;BME280;48830;53.426;10.300;2022-12-29T09:32:48;99940.25;;;10.34;100.00
62791;BME280;48830;53.426;10.300;2022-12-29T09:35:15;99953.94;;;10.32;100.00
62791;BME280;48830;53.426;10.300;2022-12-29T09:37:41;99948.00;;;10.39;100.00
62791;BME280;48830;53.426;10.300;2022-12-29T09:40:07;99953.97;;;10.39;100.00
62791;BME280;48830;53.426;10.300;2022-12-29T09:42:42;99957.41;;;10.46;100.00
62791;BME280;48830;53.426;10.300;2022-12-29T09:46:01;99957.41;;;10.40;100.00
62791;BME280;48830;53.426;10.300;2022-12-29T09:48:11;99953.13;;;10.46;100.00
62791;BME280;48830;53.426;10.300;2022-12-29T09:50:39;99959.13;;;10.51;100.00
62791;BME280;48830;53.426;10.300;2022-12-29T09:53:15;99962.59;;;10.67;100.00
62791;BME280;48830;53.426;10.300;2022-12-29T09:55:52;99950.63;;;10.82;100.00
62791;BME280;48830;53.426;10.300;2022-12-29T09:58:36;99952.31;;;10.70;100.00
62791;BME280;48830;53.426;10.300;2022-12-29T10:01:07;99957.47;;;10.83;100.00
62791;BME280;48830;53.426;10.300;2022-12-29T10:03:46;99962.63;;;10.98;100.00
62791;BME280;48830;53.426;10.300;2022-12-29T10:06:46;99962.63;;;11.13;100.00
62791;BME280;48830;53.426;10.300;2022-12-29T10:12:11;99953.19;;;11.26;100.00
62791;BME280;48830;53.426;10.300;2022-12-29T10:17:51;99939.50;;;11.09;100.00
62791;BME280;48830;53.426;10.300;2022-12-29T10:25:23;99953.13;;;11.55;100.00
62791;BME280;48830;53.426;10.300;2022-12-29T10:27:50;99954.03;;;11.39;100.00
62791;BME280;48830;53.426;10.300;2022-12-29T10:30:18;99962.63;;;11.18;100.00
62791;BME280;48830;53.426;10.300;2022-12-29T10:32:51;99947.06;;;11.93;100.00
62791;BME280;48830;53.426;10.300;2022-12-29T10:35:22;99951.28;;;12.07;100.00
62791;BME280;48830;53.426;10.300;2022-12-29T10:38:15;99953.47;;;13.78;95.06
62791;BME280;48830;53.426;10.300;2022-12-29T10:41:35;99957.13;;;13.57;92.86
62791;BME280;48830;53.426;10.300;2022-12-29T10:46:18;99955.59;;;12.04;100.00
62791;BME280;48830;53.426;10.300;2022-12-29T10:48:44;99965.94;;;11.93;100.00
62791;BME280;48830;53.426;10.300;2022-12-29T10:51:31;99958.13;;;12.13;100.00
62791;BME280;48830;53.426;10.300;2022-12-29T10:57:25;99945.25;;;12.10;100.00
62791;BME280;48830;53.426;10.300;2022-12-29T10:59:52;99962.53;;;11.83;100.00
62791;BME280;48830;53.426;10.300;2022-12-29T11:05:35;99960.03;;;11.32;100.00
62791;BME280;48830;53.426;10.300;2022-12-29T11:08:09;99954.84;;;11.65;100.00
62791;BME280;48830;53.426;10.300;2022-12-29T11:10:39;99954.78;;;11.97;100.00
62791;BME280;48830;53.426;10.300;2022-12-29T11:15:45;99957.41;;;11.62;100.00
62791;BME280;48830;53.426;10.300;2022-12-29T11:20:48;99960.81;;;11.67;100.00
62791;BME280;48830;53.426;10.300;2022-12-29T11:23:26;99950.56;;;11.58;100.00
62791;BME280;48830;53.426;10.300;2022-12-29T11:26:16;99954.03;;;11.42;98.75
62791;BME280;48830;53.426;10.300;2022-12-29T11:28:47;99960.88;;;11.43;99.70
62791;BME280;48830;53.426;10.300;2022-12-29T11:31:28;99956.59;;;11.39;100.00
62791;BME280;48830;53.426;10.300;2022-12-29T11:33:53;99969.47;;;11.17;100.00
62791;BME280;48830;53.426;10.300;2022-12-29T11:36:22;99976.34;;;11.06;100.00
62791;BME280;48830;53.426;10.300;2022-12-29T11:38:51;99966.06;;;11.00;100.00
62791;BME280;48830;53.426;10.300;2022-12-29T11:41:26;99968.63;;;10.89;100.00
62791;BME280;48830;53.426;10.300;2022-12-29T11:43:55;99971.19;;;10.95;100.00
62791;BME280;48830;53.426;10.300;2022-12-29T11:46:31;99966.03;;;10.86;100.00
62791;BME280;48830;53.426;10.300;2022-12-29T11:48:58;99966.00;;;10.65;100.00
62791;BME280;48830;53.426;10.300;2022-12-29T11:51:46;99968.63;;;10.91;100.00
62791;BME280;48830;53.426;10.300;2022-12-29T11:54:18;99968.31;;;12.36;100.00
62791;BME280;48830;53.426;10.300;2022-12-29T11:56:46;99969.44;;;11.45;100.00
62791;BME280;48830;53.426;10.300;2022-12-29T12:01:57;99964.34;;;10.77;100.00
62791;BME280;48830;53.426;10.300;2022-12-29T12:04:26;99975.44;;;10.55;100.00
62791;BME280;48830;53.426;10.300;2022-12-29T12:07:01;99959.16;;;10.62;100.00
62791;BME280;48830;53.426;10.300;2022-12-29T12:09:40;99960.88;;;10.66;100.00
62791;BME280;48830;53.426;10.300;2022-12-29T12:12:15;99954.06;;;10.84;100.00
62791;BME280;48830;53.426;10.300;2022-12-29T12:14:53;99963.47;;;10.74;100.00
62791;BME280;48830;53.426;10.300;2022-12-29T12:17:53;99957.47;;;10.73;100.00
62791;BME280;48830;53.426;10.300;2022-12-29T12:20:36;99966.03;;;10.92;100.00
62791;BME280;48830;53.426;10.300;2022-12-29T12:25:50;99952.31;;;11.28;100.00
62791;BME280;48830;53.426;10.300;2022-12-29T12:28:55;99942.91;;;11.15;100.00
62791;BME280;48830;53.426;10.300;2022-12-29T12:31:40;99953.16;;;11.43;100.00
62791;BME280;48830;53.426;10.300;2022-12-29T12:34:13;99946.25;;;11.68;100.00
62791;BME280;48830;53.426;10.300;2022-12-29T12:37:33;99941.06;;;11.92;97.41
62791;BME280;48830;53.426;10.300;2022-12-29T12:45:08;99944.59;;;11.39;97.92
62791;BME280;48830;53.426;10.300;2022-12-29T12:48:16;99936.03;;;11.22;98.03
62791;BME280;48830;53.426;10.300;2022-12-29T12:56:15;99949.75;;;11.16;96.43
62791;BME280;48830;53.426;10.300;2022-12-29T13:02:09;99950.63;;;11.27;95.34
62791;BME280;48830;53.426;10.300;2022-12-29T13:12:37;99977.19;;;11.46;90.97
62791;BME280;48830;53.426;10.300;2022-12-29T13:18:00;99976.31;;;11.44;92.15
62791;BME280;48830;53.426;10.300;2022-12-29T13:25:53;99968.59;;;11.44;91.86
62791;BME280;48830;53.426;10.300;2022-12-29T13:31:40;99975.47;;;11.35;93.71
62791;BME280;48830;53.426;10.300;2022-12-29T13:37:04;100005.50;;;11.26;92.80
62791;BME280;48830;53.426;10.300;2022-12-29T13:39:44;99996.06;;;11.27;93.40
62791;BME280;48830;53.426;10.300;2022-12-29T13:42:11;100005.47;;;11.29;94.09
62791;BME280;48830;53.426;10.300;2022-12-29T13:44:53;100007.19;;;11.34;94.29
62791;BME280;48830;53.426;10.300;2022-12-29T13:47:31;100006.31;;;11.51;94.84
62791;BME280;48830;53.426;10.300;2022-12-29T13:50:01;100005.47;;;11.49;93.91
62791;BME280;48830;53.426;10.300;2022-12-29T13:57:56;100011.50;;;11.33;95.38
62791;BME280;48830;53.426;10.300;2022-12-29T14:00:29;100023.50;;;11.19;96.38
62791;BME280;48830;53.426;10.300;2022-12-29T14:06:24;100024.34;;;11.10;97.64
62791;BME280;48830;53.426;10.300;2022-12-29T14:08:59;100029.50;;;11.04;98.61
62791;BME280;48830;53.426;10.300;2022-12-29T14:11:34;100044.06;;;11.05;97.20
62791;BME280;48830;53.426;10.300;2022-12-29T14:14:12;100040.63;;;11.08;99.11
62791;BME280;48830;53.426;10.300;2022-12-29T14:16:38;100044.03;;;10.97;99.50
62791;BME280;48830;53.426;10.300;2022-12-29T14:19:13;100048.34;;;11.00;100.00
62791;BME280;48830;53.426;10.300;2022-12-29T14:21:41;100059.47;;;10.97;100.00
62791;BME280;48830;53.426;10.300;2022-12-29T14:24:27;100074.06;;;10.94;100.00
62791;BME280;48830;53.426;10.300;2022-12-29T14:26:53;100060.31;;;10.92;99.96
62791;BME280;48830;53.426;10.300;2022-12-29T14:31:51;100078.31;;;10.86;100.00
62791;BME280;48830;53.426;10.300;2022-12-29T14:37:00;100095.41;;;10.73;100.00
62791;BME280;48830;53.426;10.300;2022-12-29T14:39:43;100097.94;;;10.65;100.00
62791;BME280;48830;53.426;10.300;2022-12-29T14:44:47;100115.88;;;10.51;100.00
62791;BME280;48830;53.426;10.300;2022-12-29T14:47:20;100119.31;;;10.50;100.00
62791;BME280;48830;53.426;10.300;2022-12-29T14:49:47;100118.44;;;10.44;100.00
62791;BME280;48830;53.426;10.300;2022-12-29T14:52:31;100117.50;;;10.37;100.00
62791;BME280;48830;53.426;10.300;2022-12-29T14:54:59;100114.09;;;10.34;100.00
62791;BME280;48830;53.426;10.300;2022-12-29T14:57:49;100125.19;;;10.33;100.00
62791;BME280;48830;53.426;10.300;2022-12-29T15:00:26;100122.63;;;10.31;100.00